Portada
METAR-TAF:

METAR-TAF

Aeroports :

Aeroport Internacional Imam Khomeini

Teheran, Iran

latitud: 35-24-58N, longitud: 51-09-08E, altitud: 1007 m

Observació

L'informe es va fer fa 1 hora i 7 minuts, a les 00:00 UTC
Vent 8 kt del Oest
Temperatura 5°C
Humitat 60%
Pressió 1022 hPa
Visibilitat 10 km o més
sense núvols per sota de 1500 mi sense presència de cumulonimbus.

METAR: OIIE 140000Z 27008KT CAVOK 05/M02 Q1022

Hora: 04:37 (01:07 UTC)

Pronòstic

L'informe es va fer fa 2 hores i 7 minuts, a les 23:00 UTC
Pronòstic vàlid del 14 a les 00 UTC al 15 a les 06 UTC
Vent 6 kt del Oest/Nord-Oest
Visibilitat: 7000 m
Evolucionant progressivament
l' 15 a les 00 UTC al 15 a les 02 UTC
Vent 12 kt del Nord/Nord-Oest

TAF: OIIE 132300Z 1400/1506 30006KT 7000 NSC BECMG 1500/1502 34012KT

Observacions i pronòstics meteorològics de més de 4000 aeroports (METAR i TAF).

Les estacions disponibles són els punts grocs i vermells al mapa.

Posi el ratolí al punt desitjat per veure el nom de l'estació.

Feu clic per veure les observacions i els pronòstics meteorològics.

Per canviar el mapa: feu clic els botons verds amb una creu de color negre per apropar; al botó verd amb un guió per allunyar la imatge; o en les fletxes verdes per a mapes adjacents.


METAR-TAF: